Thakot Weather



Thakot's Current Weather

Temprature 26.9o broken clouds

broken clouds

Rain: 0 %

Min Temprature26.9o
Max Temprature26.9o
Humidity32
Wind Speed2.37 m/h
Sun Rise04:59:49
Sun Set19:10:41
Current Time: 24-May-2022 08:39:43
Lat/Lon: 34.7864, 72.9286




Thakot's Geo Location



Thakot's Weather Forecast

Time Overall Temp Min Temp Max Temp Humidity Wind Speed Rain
24-May-2022 (Tue)
11:00:00 broken clouds 26.770 26.770 29.800 32 2.63 m/h 0 %
14:00:00 scattered clouds 30.090 30.090 32.510 27 3.04 m/h 0 %
17:00:00 scattered clouds 30.400 30.400 30.400 29 2.31 m/h 0 %
20:00:00 broken clouds 24.310 24.310 24.310 44 1.46 m/h 0 %
23:00:00 scattered clouds 22.400 22.400 22.400 48 1.97 m/h 0 %
25-May-2022 (Wed)
02:00:00 clear sky 21.500 21.500 21.500 49 2.09 m/h 0 %
05:00:00 clear sky 20.900 20.900 20.900 50 1.99 m/h 0 %
08:00:00 clear sky 28.740 28.740 28.740 34 0.88 m/h 0 %
11:00:00 clear sky 33.650 33.650 33.650 25 2.57 m/h 0 %
14:00:00 clear sky 36.410 36.410 36.410 19 3.29 m/h 0 %
17:00:00 clear sky 35.700 35.700 35.700 20 3.56 m/h 0 %
20:00:00 clear sky 27.270 27.270 27.270 35 1.79 m/h 0 %
23:00:00 clear sky 25.430 25.430 25.430 38 2.25 m/h 0 %
26-May-2022 (Thu)
02:00:00 clear sky 24.700 24.700 24.700 40 2.32 m/h 0 %
05:00:00 clear sky 23.910 23.910 23.910 41 2.13 m/h 0 %
08:00:00 clear sky 32.170 32.170 32.170 27 0.73 m/h 0 %
11:00:00 clear sky 37.100 37.100 37.100 19 2.55 m/h 0 %
14:00:00 clear sky 39.720 39.720 39.720 15 3.53 m/h 0 %
17:00:00 clear sky 37.410 37.410 37.410 20 1.29 m/h 0 %
20:00:00 broken clouds 27.800 27.800 27.800 40 2.33 m/h 0 %
23:00:00 scattered clouds 27.230 27.230 27.230 37 2.48 m/h 0 %
27-May-2022 (Fri)
02:00:00 clear sky 26.460 26.460 26.460 36 2.44 m/h 0 %
05:00:00 clear sky 25.760 25.760 25.760 36 2.35 m/h 0 %
08:00:00 clear sky 34.770 34.770 34.770 22 0.39 m/h 0 %
11:00:00 clear sky 39.600 39.600 39.600 14 2.58 m/h 0 %
14:00:00 clear sky 41.700 41.700 41.700 11 4.52 m/h 0 %
17:00:00 scattered clouds 39.830 39.830 39.830 12 4.46 m/h 0 %
20:00:00 few clouds 30.070 30.070 30.070 25 2.42 m/h 0 %
23:00:00 clear sky 28.080 28.080 28.080 30 3.21 m/h 0 %
28-May-2022 (Sat)
02:00:00 clear sky 27.070 27.070 27.070 31 2.91 m/h 0 %
05:00:00 few clouds 26.560 26.560 26.560 32 3.02 m/h 0 %
08:00:00 light rain 34.030 34.030 34.030 24 1.04 m/h 26 %
11:00:00 broken clouds 37.600 37.600 37.600 17 3.04 m/h 0 %
14:00:00 overcast clouds 37.440 37.440 37.440 19 2.94 m/h 0 %
17:00:00 broken clouds 36.210 36.210 36.210 23 2.7 m/h 0 %
20:00:00 overcast clouds 29.490 29.490 29.490 37 2.03 m/h 0 %
23:00:00 broken clouds 26.880 26.880 26.880 41 2.46 m/h 0 %
29-May-2022 (Sun)
02:00:00 overcast clouds 26.300 26.300 26.300 42 3.01 m/h 0 %
05:00:00 overcast clouds 26.020 26.020 26.020 39 2.63 m/h 0 %
08:00:00 broken clouds 33.340 33.340 33.340 27 1.51 m/h 0 %

Famous Cities (61)